Time;durP1;ratioP1;P1;durP2;ratioP2;P2;SDS_P1;SDS_P2;PMS_P1;PMS_P2;Temp;Humidity;BMP_temperature;BMP_pressure;BME280_temperature;BME280_humidity;BME280_pressure;Samples;Min_cycle;Max_cycle;Signal;HPM_P1;HPM_P2
2022/07/21 00:00:16;;;;;;;9.93;9.13;;;;;;;23.25;100.00;97262.81;4918293;28;20757;-65
2022/07/21 00:02:44;;;;;;;9.63;8.77;;;;;;;23.31;100.00;97287.16;4939783;28;20852;-54
2022/07/21 00:05:14;;;;;;;10.47;8.70;;;;;;;23.35;100.00;97294.50;4948810;28;20207;-60
2022/07/21 00:07:43;;;;;;;9.70;8.80;;;;;;;23.38;100.00;97302.06;4927814;28;20210;-54
2022/07/21 00:10:12;;;;;;;10.17;9.17;;;;;;;23.31;100.00;97312.31;4945901;28;20211;-62
2022/07/21 00:12:40;;;;;;;10.33;9.20;;;;;;;23.37;100.00;97318.53;4947302;28;21361;-59
2022/07/21 00:15:09;;;;;;;9.67;8.87;;;;;;;23.40;100.00;97321.53;4944055;28;20356;-59
2022/07/21 00:17:37;;;;;;;8.20;7.50;;;;;;;23.37;100.00;97321.25;4904731;28;20218;-60
2022/07/21 00:20:07;;;;;;;11.67;8.60;;;;;;;23.31;100.00;97327.72;4951901;28;20791;-59
2022/07/21 00:22:37;;;;;;;9.27;8.57;;;;;;;23.24;100.00;97328.75;4931084;28;20684;-62
2022/07/21 00:25:06;;;;;;;8.80;8.10;;;;;;;23.18;100.00;97331.66;4942384;28;20266;-55
2022/07/21 00:27:34;;;;;;;9.00;8.17;;;;;;;23.21;100.00;97323.03;4944994;28;20203;-61
2022/07/21 00:30:04;;;;;;;8.90;8.10;;;;;;;23.07;100.00;97325.38;4944859;28;20524;-59
2022/07/21 00:32:32;;;;;;;8.13;7.40;;;;;;;22.95;100.00;97326.41;4898599;28;20269;-59
2022/07/21 00:35:04;;;;;;;8.13;7.47;;;;;;;22.84;100.00;97320.13;4951477;28;20310;-60
2022/07/21 00:37:32;;;;;;;9.20;8.43;;;;;;;22.68;100.00;97313.00;4943898;28;20633;-60
2022/07/21 00:40:03;;;;;;;8.80;8.10;;;;;;;22.66;100.00;97315.16;4933787;28;20527;-58
2022/07/21 00:42:32;;;;;;;9.10;8.20;;;;;;;22.56;100.00;97313.19;4947464;28;20830;-59
2022/07/21 00:45:00;;;;;;;8.63;8.00;;;;;;;22.57;100.00;97319.41;4944481;28;20437;-60
2022/07/21 00:47:30;;;;;;;7.07;6.27;;;;;;;22.50;100.00;97309.63;4904153;28;20214;-62
2022/07/21 00:50:00;;;;;;;8.70;7.80;;;;;;;22.47;100.00;97298.53;4945364;28;20881;-53
2022/07/21 00:52:28;;;;;;;8.77;8.13;;;;;;;22.40;100.00;97299.56;4944353;28;20258;-58
2022/07/21 00:54:56;;;;;;;7.63;7.13;;;;;;;22.49;100.00;97291.81;4925068;28;21011;-61
2022/07/21 00:57:26;;;;;;;8.80;8.07;;;;;;;22.47;100.00;97279.66;4944808;28;20210;-56
2022/07/21 00:59:54;;;;;;;8.73;7.80;;;;;;;22.46;100.00;97272.63;4945513;28;20940;-56
2022/07/21 01:02:23;;;;;;;8.47;7.77;;;;;;;22.44;100.00;97253.94;4901865;28;20660;-59
2022/07/21 01:04:51;;;;;;;9.00;8.27;;;;;;;22.41;100.00;97247.19;4945860;28;20366;-52
2022/07/21 01:07:20;;;;;;;7.90;7.33;;;;;;;22.35;100.00;97245.53;4945659;28;20618;-55
2022/07/21 01:09:48;;;;;;;8.20;7.50;;;;;;;22.39;100.00;97227.75;4927753;28;20390;-55
2022/07/21 01:12:16;;;;;;;8.83;8.00;;;;;;;22.40;100.00;97242.03;4950121;28;20226;-59
2022/07/21 01:14:46;;;;;;;9.10;7.93;;;;;;;22.40;100.00;97228.53;4944282;28;20241;-57
2022/07/21 01:17:14;;;;;;;7.97;7.27;;;;;;;22.36;100.00;97216.66;4948333;28;20600;-59
2022/07/21 01:19:43;;;;;;;8.90;7.27;;;;;;;22.35;100.00;97207.75;4899986;28;20250;-60
2022/07/21 01:22:12;;;;;;;8.73;8.03;;;;;;;22.38;100.00;97220.72;4947736;28;20643;-55
2022/07/21 01:24:40;;;;;;;9.43;8.20;;;;;;;22.36;100.00;97230.97;4922266;28;20843;-59
2022/07/21 01:27:08;;;;;;;8.33;7.63;;;;;;;22.39;100.00;97240.41;4947347;28;20628;-54
2022/07/21 01:29:36;;;;;;;8.67;7.97;;;;;;;22.33;100.00;97231.47;4945164;28;20370;-60
2022/07/21 01:32:05;;;;;;;8.03;7.43;;;;;;;22.35;100.00;97245.53;4946203;28;20241;-55
2022/07/21 01:34:33;;;;;;;7.70;7.00;;;;;;;22.33;100.00;97236.06;4900063;28;20214;-63
2022/07/21 01:37:01;;;;;;;7.97;7.37;;;;;;;22.27;100.00;97230.63;4944617;28;20242;-57
2022/07/21 01:42:17;;;;;;;7.60;7.00;;;;;;;22.24;100.00;97214.97;4945246;28;20260;-58
2022/07/21 01:44:45;;;;;;;8.93;8.13;;;;;;;22.21;100.00;97218.19;4946577;28;20258;-61
2022/07/21 01:47:13;;;;;;;9.30;8.20;;;;;;;22.17;100.00;97205.44;4948523;28;20313;-59
2022/07/21 01:49:42;;;;;;;8.27;7.60;;;;;;;22.15;100.00;97175.22;4913233;28;20234;-62
2022/07/21 01:52:10;;;;;;;8.03;7.43;;;;;;;22.12;100.00;97163.88;4938882;28;20732;-55
2022/07/21 01:54:39;;;;;;;7.80;7.17;;;;;;;22.12;100.00;97163.88;4887540;28;20689;-56
2022/07/21 01:57:07;;;;;;;8.53;7.70;;;;;;;22.16;100.00;97139.91;4926060;28;20226;-61
2022/07/21 01:59:35;;;;;;;7.70;7.20;;;;;;;22.12;100.00;97128.81;4926726;28;20257;-53
2022/07/21 02:02:04;;;;;;;7.63;7.10;;;;;;;22.05;100.00;97135.50;4916933;28;20321;-60
2022/07/21 02:04:34;;;;;;;7.80;6.87;;;;;;;22.05;100.00;97132.78;4945449;28;20222;-55
2022/07/21 02:07:03;;;;;;;7.90;7.30;;;;;;;22.06;100.00;97127.16;4942882;28;20238;-59
2022/07/21 02:09:31;;;;;;;8.10;7.50;;;;;;;22.02;100.00;97139.53;4895949;28;20461;-56
2022/07/21 02:12:01;;;;;;;7.53;7.03;;;;;;;22.03;100.00;97132.25;4946159;28;20391;-57
2022/07/21 02:14:29;;;;;;;7.43;6.93;;;;;;;22.18;100.00;97128.81;4943194;28;20365;-57
2022/07/21 02:16:57;;;;;;;8.33;7.63;;;;;;;22.10;100.00;97130.94;4923880;28;20233;-57
2022/07/21 02:19:26;;;;;;;7.70;7.17;;;;;;;21.97;100.00;97132.22;4941577;28;20211;-52
2022/07/21 02:21:55;;;;;;;7.77;6.97;;;;;;;21.87;100.00;97132.13;4944119;28;20233;-62
2022/07/21 02:24:23;;;;;;;8.87;8.03;;;;;;;21.78;100.00;97147.16;4899579;28;21269;-58
2022/07/21 02:26:51;;;;;;;8.43;7.10;;;;;;;21.71;100.00;97150.09;4947447;28;20564;-59
2022/07/21 02:29:20;;;;;;;8.07;7.43;;;;;;;21.68;100.00;97147.91;4940726;28;20230;-61
2022/07/21 02:31:48;;;;;;;8.00;7.30;;;;;;;21.67;100.00;97165.94;4925119;28;20316;-51
2022/07/21 02:34:17;;;;;;;8.70;7.87;;;;;;;21.71;100.00;97198.63;4942031;28;20441;-51
2022/07/21 02:36:45;;;;;;;8.67;7.97;;;;;;;21.67;100.00;97202.91;4944491;28;20318;-58
2022/07/21 02:39:13;;;;;;;9.50;8.90;;;;;;;21.62;100.00;97211.69;4942145;28;20403;-56
2022/07/21 02:41:41;;;;;;;7.97;7.47;;;;;;;21.56;100.00;97218.13;4898617;28;20238;-57
2022/07/21 02:44:09;;;;;;;8.83;8.20;;;;;;;21.51;100.00;97223.47;4942585;28;20288;-62
2022/07/21 02:46:38;;;;;;;10.17;8.23;;;;;;;21.41;100.00;97218.78;4946401;28;20230;-62
2022/07/21 02:49:06;;;;;;;9.37;8.53;;;;;;;21.27;100.00;97226.44;4916994;28;20254;-61
2022/07/21 02:51:34;;;;;;;8.97;8.07;;;;;;;21.24;100.00;97233.16;4945111;28;20738;-53
2022/07/21 02:54:03;;;;;;;8.63;7.97;;;;;;;21.25;100.00;97233.94;4947296;28;20694;-60
2022/07/21 02:56:31;;;;;;;8.93;8.23;;;;;;;21.16;100.00;97235.47;4897626;28;20822;-58
2022/07/21 02:58:59;;;;;;;8.63;7.97;;;;;;;21.12;100.00;97232.44;4946666;28;20296;-57
2022/07/21 03:01:27;;;;;;;8.43;7.83;;;;;;;21.11;100.00;97238.91;4948372;28;21265;-54
2022/07/21 03:03:56;;;;;;;8.47;7.70;;;;;;;21.19;100.00;97240.34;4922364;28;20272;-60
2022/07/21 03:06:25;;;;;;;8.17;7.37;;;;;;;21.24;100.00;97249.31;4947878;28;20293;-54
2022/07/21 03:08:53;;;;;;;8.37;7.77;;;;;;;21.23;100.00;97242.31;4949244;28;20691;-54
2022/07/21 03:11:22;;;;;;;8.13;7.47;;;;;;;21.22;100.00;97253.31;4914073;28;20233;-57
2022/07/21 03:13:50;;;;;;;8.13;7.43;;;;;;;21.30;100.00;97258.25;4894436;28;20250;-57
2022/07/21 03:16:18;;;;;;;8.30;7.60;;;;;;;21.33;100.00;97260.44;4947751;28;21057;-55
2022/07/21 03:18:46;;;;;;;8.03;7.43;;;;;;;21.33;100.00;97252.38;4922158;28;20237;-55
2022/07/21 03:21:15;;;;;;;6.87;6.33;;;;;;;21.33;100.00;97255.06;4944665;28;20230;-57
2022/07/21 03:23:45;;;;;;;7.87;7.20;;;;;;;21.31;100.00;97254.50;4942835;28;20301;-59
2022/07/21 03:26:14;;;;;;;8.30;7.47;;;;;;;21.22;100.00;97254.16;4926178;28;20211;-63
2022/07/21 03:28:43;;;;;;;6.80;6.30;;;;;;;21.19;100.00;97259.22;4896776;28;20373;-58
2022/07/21 03:31:11;;;;;;;7.33;6.83;;;;;;;21.11;100.00;97253.19;4949520;28;20332;-57
2022/07/21 03:33:39;;;;;;;8.03;7.43;;;;;;;21.00;100.00;97247.94;4929293;28;20218;-61
2022/07/21 03:36:08;;;;;;;7.20;6.60;;;;;;;20.91;100.00;97247.53;4937962;28;20228;-58
2022/07/21 03:38:37;;;;;;;6.27;5.83;;;;;;;20.81;100.00;97248.22;4944298;28;20210;-60
2022/07/21 03:41:06;;;;;;;7.07;6.17;;;;;;;20.76;100.00;97254.34;4948226;28;20806;-57
2022/07/21 03:43:40;;;;;;;6.17;5.73;;;;;;;20.79;100.00;97272.72;4910004;28;20208;-62
2022/07/21 03:46:08;;;;;;;5.97;5.47;;;;;;;20.79;100.00;97274.56;4946930;28;20289;-57
2022/07/21 03:48:36;;;;;;;5.83;5.47;;;;;;;20.82;100.00;97282.97;4951684;28;20267;-61
2022/07/21 03:51:05;;;;;;;5.20;4.80;;;;;;;20.80;100.00;97290.50;4922015;28;20281;-59
2022/07/21 03:53:33;;;;;;;6.27;5.77;;;;;;;20.81;100.00;97294.81;4912967;28;20293;-61
2022/07/21 03:56:02;;;;;;;5.20;4.80;;;;;;;20.84;100.00;97298.91;4947873;28;20230;-61
2022/07/21 03:58:30;;;;;;;5.10;4.80;;;;;;;20.93;100.00;97291.19;4948271;28;20480;-54
2022/07/21 04:00:59;;;;;;;4.97;4.67;;;;;;;20.95;100.00;97297.97;4844883;28;20226;-59
2022/07/21 04:03:27;;;;;;;5.20;4.80;;;;;;;20.93;100.00;97308.19;4934301;28;20390;-61
2022/07/21 04:05:55;;;;;;;5.03;4.73;;;;;;;20.90;100.00;97302.47;4949121;28;20715;-60
2022/07/21 04:08:23;;;;;;;4.97;4.63;;;;;;;20.88;100.00;97300.03;4921285;28;20238;-58
2022/07/21 04:10:51;;;;;;;4.93;4.63;;;;;;;20.79;100.00;97296.94;4949778;28;20691;-56
2022/07/21 04:13:21;;;;;;;5.07;4.77;;;;;;;20.79;100.00;97310.41;4945993;28;20202;-59
2022/07/21 04:15:53;;;;;;;4.90;4.60;;;;;;;20.72;100.00;97311.59;4901973;28;20592;-57
2022/07/21 04:18:21;;;;;;;4.60;4.30;;;;;;;20.67;100.00;97321.22;4947497;28;20218;-60
2022/07/21 04:20:49;;;;;;;4.33;3.97;;;;;;;20.68;100.00;97327.44;4948474;28;20257;-60
2022/07/21 04:23:17;;;;;;;5.07;4.77;;;;;;;20.56;100.00;97329.38;4920723;28;20655;-59
2022/07/21 04:25:45;;;;;;;4.77;4.47;;;;;;;20.49;100.00;97334.94;4915244;28;20862;-57
2022/07/21 04:28:13;;;;;;;4.80;4.40;;;;;;;20.45;100.00;97349.94;4949026;28;20237;-59
2022/07/21 04:30:43;;;;;;;4.53;4.23;;;;;;;20.44;100.00;97346.44;4937961;28;20292;-64
2022/07/21 04:33:12;;;;;;;4.43;4.23;;;;;;;20.48;100.00;97344.88;4923712;28;20622;-64
2022/07/21 04:35:40;;;;;;;4.43;4.13;;;;;;;20.54;100.00;97338.53;4948668;28;20242;-64
2022/07/21 04:38:10;;;;;;;4.43;4.20;;;;;;;20.65;100.00;97352.97;4922760;28;20581;-62
2022/07/21 04:40:38;;;;;;;4.43;4.10;;;;;;;20.72;100.00;97344.72;4946482;28;20229;-62
2022/07/21 04:43:06;;;;;;;4.63;4.33;;;;;;;20.79;100.00;97336.50;4949251;28;20206;-61
2022/07/21 04:45:35;;;;;;;4.93;4.60;;;;;;;20.93;100.00;97355.81;4949523;28;20211;-63
2022/07/21 04:48:05;;;;;;;4.67;4.23;;;;;;;20.98;100.00;97358.59;4901546;28;20219;-61
2022/07/21 04:50:33;;;;;;;4.40;4.10;;;;;;;21.14;100.00;97353.44;4946348;28;20803;-61
2022/07/21 04:53:01;;;;;;;4.93;4.63;;;;;;;21.25;100.00;97342.56;4921577;28;20417;-59
2022/07/21 04:55:29;;;;;;;5.03;4.63;;;;;;;21.43;100.00;97332.53;4943881;28;20280;-62
2022/07/21 04:57:58;;;;;;;4.47;4.20;;;;;;;21.72;100.00;97331.53;4940662;28;20300;-63
2022/07/21 05:00:28;;;;;;;4.67;4.30;;;;;;;21.89;100.00;97340.38;4947739;28;20199;-58
2022/07/21 05:02:56;;;;;;;3.70;3.53;;;;;;;21.91;100.00;97335.53;4887935;28;20233;-62
2022/07/21 05:05:26;;;;;;;5.20;4.70;;;;;;;21.92;100.00;97333.63;4944444;28;20206;-62
2022/07/21 05:07:54;;;;;;;4.40;4.17;;;;;;;21.78;100.00;97327.81;4945926;28;20263;-65
2022/07/21 05:10:23;;;;;;;4.10;3.80;;;;;;;21.79;100.00;97321.38;4927228;28;20562;-62
2022/07/21 05:12:51;;;;;;;4.90;4.40;;;;;;;21.94;100.00;97318.84;4915236;28;20718;-62
2022/07/21 05:15:19;;;;;;;5.10;4.40;;;;;;;22.10;100.00;97322.50;4944127;28;20592;-62
2022/07/21 05:17:47;;;;;;;4.30;4.00;;;;;;;22.08;100.00;97345.38;4899729;28;20234;-60
2022/07/21 05:20:15;;;;;;;4.07;3.80;;;;;;;22.04;100.00;97360.47;4944843;28;20249;-63
2022/07/21 05:22:45;;;;;;;4.53;4.33;;;;;;;21.91;100.00;97362.50;4946830;28;20366;-61
2022/07/21 05:25:13;;;;;;;4.53;4.13;;;;;;;21.84;100.00;97383.47;4926140;28;20222;-64
2022/07/21 05:27:41;;;;;;;4.33;4.03;;;;;;;21.79;100.00;97413.06;4946886;28;20967;-63
2022/07/21 05:30:11;;;;;;;4.63;4.30;;;;;;;21.61;100.00;97416.84;4946131;28;20231;-64
2022/07/21 05:32:39;;;;;;;4.37;4.07;;;;;;;21.30;100.00;97406.47;4896766;28;20264;-60
2022/07/21 05:35:14;;;;;;;4.23;4.03;;;;;;;21.19;100.00;97378.56;4945224;28;20212;-61
2022/07/21 05:37:42;;;;;;;4.20;3.90;;;;;;;21.05;100.00;97390.75;4944729;28;20874;-58
2022/07/21 05:40:12;;;;;;;4.33;4.03;;;;;;;20.91;100.00;97387.56;4923189;28;20801;-63
2022/07/21 05:42:41;;;;;;;4.20;4.00;;;;;;;20.78;100.00;97394.91;4945698;28;20874;-62
2022/07/21 05:45:10;;;;;;;4.80;4.40;;;;;;;20.62;100.00;97393.84;4948471;28;20648;-61
2022/07/21 05:47:38;;;;;;;5.00;4.73;;;;;;;20.47;100.00;97390.91;4898253;28;24620;-62
2022/07/21 05:50:08;;;;;;;5.03;4.73;;;;;;;20.45;100.00;97419.91;4939005;28;20568;-62
2022/07/21 05:52:36;;;;;;;5.80;5.30;;;;;;;20.36;100.00;97425.69;4940852;28;20980;-61
2022/07/21 05:55:06;;;;;;;5.13;4.73;;;;;;;20.36;100.00;97449.88;4946467;28;20327;-60
2022/07/21 05:57:35;;;;;;;6.53;4.60;;;;;;;20.36;100.00;97451.78;4921596;28;20245;-64
2022/07/21 06:00:11;;;;;;;5.90;5.50;;;;;;;20.46;100.00;97453.84;4946285;28;20210;-65
2022/07/21 06:02:39;;;;;;;5.80;4.90;;;;;;;20.50;100.00;97453.09;4944716;28;20302;-58
2022/07/21 06:05:10;;;;;;;5.60;5.03;;;;;;;20.42;100.00;97436.53;4905777;28;20393;-61
2022/07/21 06:07:39;;;;;;;5.33;4.93;;;;;;;20.21;100.00;97439.66;4887240;28;20214;-63
2022/07/21 06:10:08;;;;;;;6.07;5.47;;;;;;;20.12;100.00;97446.47;4937779;28;20433;-59
2022/07/21 06:12:43;;;;;;;4.77;4.57;;;;;;;20.07;100.00;97459.84;4939470;28;20209;-66
2022/07/21 06:15:12;;;;;;;5.80;5.40;;;;;;;20.00;100.00;97467.22;4940356;28;20202;-60
2022/07/21 06:17:41;;;;;;;6.20;5.80;;;;;;;19.87;100.00;97458.31;4946505;28;20333;-59
2022/07/21 06:20:10;;;;;;;6.37;5.87;;;;;;;19.72;100.00;97453.47;4947703;28;20778;-62
2022/07/21 06:22:38;;;;;;;6.27;5.77;;;;;;;19.65;100.00;97447.38;4903180;28;20632;-62
2022/07/21 06:25:07;;;;;;;5.90;5.13;;;;;;;19.62;100.00;97464.81;4943422;28;20292;-62
2022/07/21 06:27:35;;;;;;;7.13;6.53;;;;;;;19.62;100.00;97472.88;4943049;28;20737;-59
2022/07/21 06:30:07;;;;;;;6.73;6.13;;;;;;;19.60;100.00;97477.66;4933766;28;20284;-60
2022/07/21 06:32:35;;;;;;;7.10;6.57;;;;;;;19.48;100.00;97472.28;4952041;28;20308;-59
2022/07/21 06:35:04;;;;;;;7.57;6.73;;;;;;;19.23;100.00;97464.47;4951201;28;20499;-60
2022/07/21 06:37:32;;;;;;;7.63;7.03;;;;;;;18.90;100.00;97463.94;4942353;28;20230;-64
2022/07/21 06:40:01;;;;;;;7.53;7.03;;;;;;;18.80;100.00;97480.63;4914961;28;20249;-60
2022/07/21 06:42:29;;;;;;;8.03;7.33;;;;;;;18.64;100.00;97490.16;4950719;28;20284;-60
2022/07/21 06:44:57;;;;;;;7.67;6.97;;;;;;;18.57;100.00;97486.75;4929859;28;20269;-58
2022/07/21 06:47:27;;;;;;;8.47;7.87;;;;;;;18.46;100.00;97488.31;4947610;28;20594;-58
2022/07/21 06:49:55;;;;;;;8.03;7.43;;;;;;;18.41;100.00;97490.88;4948367;28;20277;-60
2022/07/21 06:52:31;;;;;;;9.67;8.00;;;;;;;18.42;100.00;97491.69;4947592;28;20273;-62
2022/07/21 06:55:00;;;;;;;8.10;7.30;;;;;;;18.47;100.00;97497.19;4901022;28;20377;-61
2022/07/21 06:57:28;;;;;;;8.03;7.33;;;;;;;18.50;100.00;97500.25;4947934;28;20969;-57
2022/07/21 06:59:56;;;;;;;7.90;7.23;;;;;;;18.55;100.00;97512.16;4927268;28;22995;-63
2022/07/21 07:02:24;;;;;;;8.27;7.50;;;;;;;18.61;100.00;97524.66;4949173;28;20222;-58
2022/07/21 07:04:54;;;;;;;7.73;7.13;;;;;;;18.65;100.00;97526.66;4945274;28;20241;-60
2022/07/21 07:07:22;;;;;;;6.83;6.33;;;;;;;18.68;100.00;97513.84;4952746;28;20218;-58
2022/07/21 07:09:50;;;;;;;7.70;7.10;;;;;;;18.72;100.00;97504.28;4902083;28;20915;-58
2022/07/21 07:12:18;;;;;;;7.60;7.00;;;;;;;18.68;100.00;97487.81;4945999;28;20254;-62
2022/07/21 07:15:07;;;;;;;7.93;7.33;;;;;;;18.73;100.00;97504.03;4933350;28;20496;-57
2022/07/21 07:17:35;;;;;;;8.10;7.33;;;;;;;18.73;100.00;97493.28;4948578;28;20202;-59
2022/07/21 07:20:07;;;;;;;7.43;6.77;;;;;;;18.74;100.00;97489.56;4946114;28;20337;-61
2022/07/21 07:22:35;;;;;;;7.80;7.20;;;;;;;18.85;100.00;97485.28;4947204;28;20260;-58
2022/07/21 07:25:05;;;;;;;7.90;7.20;;;;;;;18.86;100.00;97484.22;4902727;28;20313;-60
2022/07/21 07:27:33;;;;;;;7.53;6.93;;;;;;;18.96;100.00;97497.09;4943911;28;20238;-63
2022/07/21 07:30:01;;;;;;;8.07;7.47;;;;;;;19.05;100.00;97505.69;4946168;28;20854;-60
2022/07/21 07:32:36;;;;;;;7.47;6.97;;;;;;;19.19;100.00;97508.97;4931804;28;20233;-59
2022/07/21 07:35:07;;;;;;;7.57;6.97;;;;;;;19.31;100.00;97508.94;4951569;28;20261;-62
2022/07/21 07:37:35;;;;;;;8.53;7.73;;;;;;;19.56;100.00;97500.69;4943621;28;20246;-59
2022/07/21 07:40:05;;;;;;;7.30;6.80;;;;;;;19.84;100.00;97504.50;4903122;28;21511;-62
2022/07/21 07:42:34;;;;;;;7.70;7.10;;;;;;;20.12;100.00;97492.22;4945303;28;20657;-63
2022/07/21 07:45:02;;;;;;;7.13;6.53;;;;;;;20.49;100.00;97489.16;4946418;28;20281;-65
2022/07/21 07:47:30;;;;;;;8.50;7.80;;;;;;;20.84;100.00;97482.00;4931239;28;20246;-60
2022/07/21 07:49:59;;;;;;;7.40;6.90;;;;;;;21.10;100.00;97477.03;4945169;28;20463;-60
2022/07/21 07:52:29;;;;;;;8.13;7.43;;;;;;;21.20;100.00;97484.44;4950048;28;20233;-58
2022/07/21 07:54:57;;;;;;;7.90;7.30;;;;;;;21.32;100.00;97504.03;4946941;28;20420;-62
2022/07/21 07:57:34;;;;;;;8.33;7.73;;;;;;;21.24;100.00;97497.19;4898945;28;20260;-62
2022/07/21 08:00:03;;;;;;;8.33;7.73;;;;;;;20.91;100.00;97488.03;4947631;28;20400;-62
2022/07/21 08:02:43;;;;;;;8.87;8.17;;;;;;;20.85;100.00;97483.63;4930377;28;20240;-62
2022/07/21 08:05:11;;;;;;;7.97;7.33;;;;;;;20.68;100.00;97502.41;4951609;28;20234;-62
2022/07/21 08:07:41;;;;;;;8.97;8.30;;;;;;;20.56;100.00;97496.25;4949147;28;20426;-63
2022/07/21 08:10:11;;;;;;;9.50;8.70;;;;;;;20.35;100.00;97491.31;4952211;28;20316;-61
2022/07/21 08:13:00;;;;;;;8.63;7.93;;;;;;;20.20;100.00;97513.34;4911478;28;20305;-62
2022/07/21 08:15:34;;;;;;;9.93;9.10;;;;;;;20.05;100.00;97518.44;4896395;28;20293;-63
2022/07/21 08:18:02;;;;;;;9.80;8.93;;;;;;;19.99;100.00;97519.38;4924544;28;20268;-62
2022/07/21 08:20:30;;;;;;;10.00;9.13;;;;;;;20.04;100.00;97512.22;4946452;28;20612;-62
2022/07/21 08:23:00;;;;;;;10.47;9.40;;;;;;;20.08;100.00;97508.03;4928528;28;20840;-62
2022/07/21 08:25:28;;;;;;;9.93;9.27;;;;;;;20.21;100.00;97520.34;4947343;28;20265;-60
2022/07/21 08:27:56;;;;;;;10.47;9.77;;;;;;;20.27;100.00;97537.44;4947058;28;20746;-58
2022/07/21 08:30:24;;;;;;;10.37;9.67;;;;;;;20.23;100.00;97531.69;4906090;28;20225;-59
2022/07/21 08:32:58;;;;;;;11.10;10.27;;;;;;;20.18;100.00;97539.66;4943729;28;20211;-61
2022/07/21 08:35:26;;;;;;;11.13;10.33;;;;;;;20.15;100.00;97544.72;4948157;28;20232;-62
2022/07/21 08:37:56;;;;;;;11.13;10.23;;;;;;;20.10;100.00;97550.81;4943962;28;20569;-61
2022/07/21 08:40:26;;;;;;;11.33;10.47;;;;;;;20.12;100.00;97564.81;4936100;28;20234;-62
2022/07/21 08:42:55;;;;;;;11.97;10.97;;;;;;;20.08;100.00;97550.22;4950331;28;20202;-63
2022/07/21 08:45:23;;;;;;;12.60;11.37;;;;;;;20.02;100.00;97543.09;4949626;28;20271;-61
2022/07/21 08:47:53;;;;;;;13.13;11.80;;;;;;;20.04;100.00;97543.69;4900040;28;20864;-60
2022/07/21 08:50:23;;;;;;;12.80;11.77;;;;;;;20.10;100.00;97548.94;4947426;28;20597;-60
2022/07/21 08:52:51;;;;;;;11.80;10.90;;;;;;;20.20;100.00;97547.50;4948323;28;20336;-57
2022/07/21 08:55:31;;;;;;;12.87;11.67;;;;;;;20.20;100.00;97551.00;4930346;28;20210;-61
2022/07/21 08:58:00;;;;;;;12.37;11.47;;;;;;;20.15;100.00;97567.03;4942562;28;20980;-61
2022/07/21 09:00:34;;;;;;;12.07;11.17;;;;;;;20.06;100.00;97550.44;4945960;28;20389;-60
2022/07/21 09:03:10;;;;;;;11.97;10.97;;;;;;;20.20;100.00;97561.75;4903386;28;20387;-60
2022/07/21 09:05:39;;;;;;;11.23;10.40;;;;;;;20.27;100.00;97555.44;4942026;28;20560;-62
2022/07/21 09:08:07;;;;;;;11.50;10.70;;;;;;;20.22;100.00;97562.34;4946587;28;20203;-58
2022/07/21 09:10:38;;;;;;;12.77;11.47;;;;;;;20.19;100.00;97549.38;4931129;28;20735;-60
2022/07/21 09:13:07;;;;;;;13.00;11.93;;;;;;;20.08;100.00;97556.44;4948089;28;20272;-62
2022/07/21 09:15:36;;;;;;;11.47;10.57;;;;;;;20.20;100.00;97553.69;4944790;28;20689;-61
2022/07/21 09:18:12;;;;;;;12.07;11.07;;;;;;;20.35;100.00;97555.09;4903231;28;20348;-62
2022/07/21 09:20:50;;;;;;;12.10;11.20;;;;;;;20.36;100.00;97562.09;4936214;28;20264;-62
2022/07/21 09:23:20;;;;;;;12.27;11.23;;;;;;;20.30;100.00;97555.78;4944688;28;20281;-64
2022/07/21 09:25:52;;;;;;;12.70;11.57;;;;;;;20.39;100.00;97557.03;4928272;28;20206;-60
2022/07/21 09:28:21;;;;;;;12.30;11.07;;;;;;;20.63;100.00;97556.97;4948783;28;20210;-63
2022/07/21 09:30:52;;;;;;;12.17;11.23;;;;;;;20.76;100.00;97544.28;4945209;28;20590;-58
2022/07/21 09:33:25;;;;;;;11.63;10.67;;;;;;;20.96;100.00;97549.25;4945766;28;20253;-63
2022/07/21 09:35:59;;;;;;;12.57;11.43;;;;;;;21.16;100.00;97540.69;4902824;28;20230;-60
2022/07/21 09:38:28;;;;;;;11.50;10.53;;;;;;;21.39;100.00;97542.41;4947443;28;20224;-62
2022/07/21 09:41:05;;;;;;;12.47;11.47;;;;;;;21.51;100.00;97549.63;4939081;28;20234;-59
2022/07/21 09:43:42;;;;;;;12.83;11.83;;;;;;;21.43;100.00;97550.03;4928786;28;20210;-61
2022/07/21 09:46:15;;;;;;;13.20;11.80;;;;;;;21.26;100.00;97550.81;4949418;28;20210;-61
2022/07/21 09:48:45;;;;;;;12.57;11.63;;;;;;;21.06;100.00;97560.22;4903325;28;20214;-64
2022/07/21 09:51:37;;;;;;;12.23;11.23;;;;;;;21.03;100.00;97558.00;4939533;28;20584;-63
2022/07/21 09:54:07;;;;;;;12.90;11.90;;;;;;;20.93;100.00;97571.28;4944785;28;20217;-57
2022/07/21 09:56:38;;;;;;;13.03;11.97;;;;;;;20.88;100.00;97563.94;4943641;28;20242;-61
2022/07/21 09:59:08;;;;;;;12.87;11.97;;;;;;;20.89;100.00;97556.66;4929368;28;20261;-62
2022/07/21 10:01:37;;;;;;;12.67;11.57;;;;;;;20.78;100.00;97547.53;4945432;28;20483;-59
2022/07/21 10:04:06;;;;;;;12.07;11.07;;;;;;;20.80;100.00;97551.66;4945459;28;20280;-64
2022/07/21 10:06:38;;;;;;;12.73;11.83;;;;;;;21.19;100.00;97550.97;4894973;28;20985;-60
2022/07/21 10:09:07;;;;;;;13.10;12.10;;;;;;;21.58;100.00;97544.03;4944171;28;20293;-62
2022/07/21 10:11:40;;;;;;;12.03;11.17;;;;;;;21.79;100.00;97539.81;4941773;28;20221;-63
2022/07/21 10:14:11;;;;;;;12.83;11.83;;;;;;;21.93;100.00;97538.38;4928491;28;20218;-63
2022/07/21 10:16:39;;;;;;;13.77;12.67;;;;;;;21.96;100.00;97545.97;4944470;28;20203;-63
2022/07/21 10:19:23;;;;;;;13.23;12.23;;;;;;;21.82;100.00;97547.41;4946128;28;20214;-61
2022/07/21 10:21:58;;;;;;;13.50;12.40;;;;;;;21.65;100.00;97566.31;4882179;28;20341;-60
2022/07/21 10:24:28;;;;;;;13.43;12.50;;;;;;;21.51;100.00;97565.78;4939082;28;20313;-63
2022/07/21 10:27:03;;;;;;;13.10;12.10;;;;;;;21.44;100.00;97574.03;4943539;28;20210;-64
2022/07/21 10:30:00;;;;;;;13.20;12.20;;;;;;;21.44;100.00;97582.13;4944564;28;20599;-64
2022/07/21 10:32:32;;;;;;;12.10;11.20;;;;;;;21.38;100.00;97575.00;4948959;28;20642;-60
2022/07/21 10:35:01;;;;;;;13.87;12.77;;;;;;;21.48;100.00;97569.78;4946909;28;20644;-62
2022/07/21 10:37:49;;;;;;;14.47;13.37;;;;;;;21.56;100.00;97579.34;4900907;28;20247;-63
2022/07/21 10:40:37;;;;;;;14.17;13.17;;;;;;;21.49;100.00;97579.50;4944819;28;20234;-62
2022/07/21 10:43:38;;;;;;;15.37;14.27;;;;;;;21.37;100.00;97593.03;4942341;28;20305;-59
2022/07/21 10:46:38;;;;;;;14.47;13.47;;;;;;;21.22;100.00;97587.41;4944713;28;20507;-60
2022/07/21 10:49:09;;;;;;;13.70;12.80;;;;;;;21.27;100.00;97581.28;4939154;28;20276;-64
2022/07/21 10:51:38;;;;;;;14.13;13.03;;;;;;;21.19;100.00;97575.22;4904133;28;20230;-59
2022/07/21 10:54:23;;;;;;;15.37;14.27;;;;;;;21.21;100.00;97581.22;4939897;28;20503;-60
2022/07/21 10:57:25;;;;;;;15.07;13.77;;;;;;;21.30;100.00;97560.06;4947118;28;20612;-62
2022/07/21 11:00:27;;;;;;;14.93;13.63;;;;;;;21.35;100.00;97562.81;4946089;28;20230;-64
2022/07/21 11:02:57;;;;;;;15.37;14.17;;;;;;;21.45;100.00;97574.84;4868301;29;20209;-64
2022/07/21 11:05:28;;;;;;;15.07;14.03;;;;;;;21.60;100.00;97561.59;4867191;29;20846;-62
2022/07/21 11:08:15;;;;;;;16.40;15.10;;;;;;;21.80;100.00;97563.03;4823610;29;20919;-63
2022/07/21 11:10:47;;;;;;;16.07;14.87;;;;;;;22.11;100.00;97564.25;4868100;29;20594;-63
2022/07/21 11:13:16;;;;;;;17.07;15.70;;;;;;;22.45;100.00;97563.31;4871854;29;20361;-62
2022/07/21 11:15:55;;;;;;;16.57;15.17;;;;;;;22.54;100.00;97563.72;4875450;29;20667;-64
2022/07/21 11:18:25;;;;;;;16.43;15.17;;;;;;;22.50;100.00;97562.59;4872090;29;20220;-63
2022/07/21 11:21:07;;;;;;;16.10;14.87;;;;;;;22.47;100.00;97563.91;4870079;29;20237;-63
2022/07/21 11:23:39;;;;;;;17.27;15.83;;;;;;;22.41;100.00;97559.47;4824141;29;20290;-62
2022/07/21 11:26:08;;;;;;;16.43;15.23;;;;;;;22.59;100.00;97555.66;4869933;29;20979;-62
2022/07/21 11:28:37;;;;;;;16.93;15.53;;;;;;;22.46;100.00;97562.28;4874191;29;20216;-60
2022/07/21 11:31:12;;;;;;;16.57;15.27;;;;;;;22.65;100.00;97564.66;4867695;29;20842;-62
2022/07/21 11:33:42;;;;;;;16.03;14.73;;;;;;;22.72;100.00;97554.47;4873326;29;20212;-58
2022/07/21 11:36:10;;;;;;;19.50;17.70;;;;;;;22.79;100.00;97562.38;4871139;29;20556;-65
2022/07/21 11:39:04;;;;;;;17.30;15.80;;;;;;;22.56;100.00;97556.19;4865383;28;20245;-62